Time;durP1;ratioP1;P1;durP2;ratioP2;P2;SDS_P1;SDS_P2;PMS_P1;PMS_P2;Temp;Humidity;BMP_temperature;BMP_pressure;BME280_temperature;BME280_humidity;BME280_pressure;Samples;Min_cycle;Max_cycle;Signal;HPM_P1;HPM_P2
2022/08/29 00:01:25;;;;;;;;;2.00;2.00;;;;;;;;5069785;28;51628;-60
2022/08/29 00:03:54;;;;;;;;;3.00;3.00;;;;;;;;5064405;28;51234;-59
2022/08/29 00:06:19;;;;;;;;;2.00;2.00;;;;;;;;5072943;28;51003;-59
2022/08/29 00:08:44;;;;;;;;;4.00;4.00;;;;;;;;5073733;28;50867;-60
2022/08/29 00:11:09;;;;;;;;;1.33;1.33;;;;;;;;5073324;28;51323;-61
2022/08/29 00:13:34;;;;;;;;;2.67;2.00;;;;;;;;5073014;28;54354;-60
2022/08/29 00:16:00;;;;;;;;;2.67;2.67;;;;;;;;5075844;28;50847;-60
2022/08/29 00:18:25;;;;;;;;;3.00;3.00;;;;;;;;5074694;27;51097;-60
2022/08/29 00:20:51;;;;;;;;;2.00;1.67;;;;;;;;5074384;28;51133;-61
2022/08/29 00:23:16;;;;;;;;;1.00;1.00;;;;;;;;5075204;28;50992;-60
2022/08/29 00:25:41;;;;;;;;;2.00;1.67;;;;;;;;5067794;27;52540;-60
2022/08/29 00:28:06;;;;;;;;;2.33;2.00;;;;;;;;5062716;28;51131;-60
2022/08/29 00:30:32;;;;;;;;;3.00;2.33;;;;;;;;5072222;28;50927;-60
2022/08/29 00:32:57;;;;;;;;;3.33;2.67;;;;;;;;5069652;28;52071;-58
2022/08/29 00:35:31;;;;;;;;;3.00;2.67;;;;;;;;5075222;28;51026;-60
2022/08/29 00:37:57;;;;;;;;;1.00;1.00;;;;;;;;5072612;28;51369;-59
2022/08/29 00:40:27;;;;;;;;;3.00;2.67;;;;;;;;5071432;28;51183;-59
2022/08/29 00:42:52;;;;;;;;;2.00;2.00;;;;;;;;5074982;28;51102;-60
2022/08/29 00:45:18;;;;;;;;;1.00;1.00;;;;;;;;5074807;28;51077;-59
2022/08/29 00:47:51;;;;;;;;;2.67;2.67;;;;;;;;5073730;28;50943;-60
2022/08/29 00:50:21;;;;;;;;;2.00;2.00;;;;;;;;5073826;27;51017;-59
2022/08/29 00:52:47;;;;;;;;;1.67;1.67;;;;;;;;5073430;28;52130;-59
2022/08/29 00:55:16;;;;;;;;;1.00;1.00;;;;;;;;5073714;28;50936;-59
2022/08/29 00:57:45;;;;;;;;;2.33;2.00;;;;;;;;5075081;27;50974;-59
2022/08/29 01:00:11;;;;;;;;;3.00;2.00;;;;;;;;5065779;27;51318;-61
2022/08/29 01:02:39;;;;;;;;;1.00;1.00;;;;;;;;5074032;28;51046;-59
2022/08/29 01:05:04;;;;;;;;;1.00;1.00;;;;;;;;5073407;28;51114;-58
2022/08/29 01:07:30;;;;;;;;;2.67;2.67;;;;;;;;5070388;27;51100;-61
2022/08/29 01:09:55;;;;;;;;;2.00;2.00;;;;;;;;5067987;27;51456;-58
2022/08/29 01:12:22;;;;;;;;;2.00;2.00;;;;;;;;5065491;27;52119;-60
2022/08/29 01:14:54;;;;;;;;;1.00;1.00;;;;;;;;5067943;27;51145;-59
2022/08/29 01:17:27;;;;;;;;;1.00;1.00;;;;;;;;5074638;28;51169;-61
2022/08/29 01:19:58;;;;;;;;;2.00;2.00;;;;;;;;5070778;28;51446;-59
2022/08/29 01:22:23;;;;;;;;;2.00;1.33;;;;;;;;5073847;28;52221;-58
2022/08/29 01:24:51;;;;;;;;;2.00;1.33;;;;;;;;5074562;28;50967;-59
2022/08/29 01:27:20;;;;;;;;;3.00;3.00;;;;;;;;5066907;27;51235;-60
2022/08/29 01:29:45;;;;;;;;;2.00;1.67;;;;;;;;5058813;28;51069;-59
2022/08/29 01:32:11;;;;;;;;;2.00;2.00;;;;;;;;5065905;28;53366;-59
2022/08/29 01:34:37;;;;;;;;;1.00;1.00;;;;;;;;5071524;28;51052;-61
2022/08/29 01:37:03;;;;;;;;;1.00;1.00;;;;;;;;5073600;28;51174;-59
2022/08/29 01:39:30;;;;;;;;;2.00;2.00;;;;;;;;5064905;28;51277;-58
2022/08/29 01:41:56;;;;;;;;;1.00;1.00;;;;;;;;5064626;28;51056;-60
2022/08/29 01:44:24;;;;;;;;;2.00;2.00;;;;;;;;5070230;27;51911;-60
2022/08/29 01:46:51;;;;;;;;;2.00;1.67;;;;;;;;5074487;28;51051;-58
2022/08/29 01:49:17;;;;;;;;;3.00;3.00;;;;;;;;5074394;28;50980;-62
2022/08/29 01:51:42;;;;;;;;;2.00;2.00;;;;;;;;5066711;28;51072;-60
2022/08/29 01:54:09;;;;;;;;;2.00;1.00;;;;;;;;5073709;28;51024;-60
2022/08/29 01:56:36;;;;;;;;;3.00;2.67;;;;;;;;5074483;28;51088;-60
2022/08/29 01:59:02;;;;;;;;;2.00;1.00;;;;;;;;5072179;27;51262;-60
2022/08/29 02:01:31;;;;;;;;;2.00;2.00;;;;;;;;5068031;28;52143;-61
2022/08/29 02:03:57;;;;;;;;;1.33;1.33;;;;;;;;5073933;27;51039;-59
2022/08/29 02:06:23;;;;;;;;;2.33;2.00;;;;;;;;5070700;28;50948;-61
2022/08/29 02:08:48;;;;;;;;;2.00;2.00;;;;;;;;5066804;28;51098;-58
2022/08/29 02:11:14;;;;;;;;;1.67;1.00;;;;;;;;5066903;28;51220;-60
2022/08/29 02:13:41;;;;;;;;;2.00;2.00;;;;;;;;5072107;27;51139;-60
2022/08/29 02:16:07;;;;;;;;;3.00;2.33;;;;;;;;5073137;28;50946;-60
2022/08/29 02:18:33;;;;;;;;;2.33;2.00;;;;;;;;5074035;28;51423;-59
2022/08/29 02:20:59;;;;;;;;;3.00;3.00;;;;;;;;5071442;28;51154;-60
2022/08/29 02:23:24;;;;;;;;;2.00;2.00;;;;;;;;5071603;27;51348;-58
2022/08/29 02:25:50;;;;;;;;;2.00;2.00;;;;;;;;5073450;28;50970;-59
2022/08/29 02:28:17;;;;;;;;;2.00;2.00;;;;;;;;5070899;28;51087;-59
2022/08/29 02:30:43;;;;;;;;;2.00;1.00;;;;;;;;5059251;28;51519;-61
2022/08/29 02:33:09;;;;;;;;;2.00;2.00;;;;;;;;5057481;28;52703;-60
2022/08/29 02:35:34;;;;;;;;;2.00;2.00;;;;;;;;5062187;28;51206;-61
2022/08/29 02:38:00;;;;;;;;;2.00;2.00;;;;;;;;5073040;28;51299;-60
2022/08/29 02:40:26;;;;;;;;;2.67;2.00;;;;;;;;5056641;28;51284;-61
2022/08/29 02:42:52;;;;;;;;;2.33;2.33;;;;;;;;5063379;28;50884;-60
2022/08/29 02:45:18;;;;;;;;;2.33;2.33;;;;;;;;5061813;28;50856;-58
2022/08/29 02:47:43;;;;;;;;;2.67;2.67;;;;;;;;5057729;28;51402;-60
2022/08/29 02:50:08;;;;;;;;;1.33;1.33;;;;;;;;5067585;28;53946;-60
2022/08/29 02:52:34;;;;;;;;;1.00;1.00;;;;;;;;5071267;28;51127;-60
2022/08/29 02:54:59;;;;;;;;;2.00;2.00;;;;;;;;5068855;27;51152;-60
2022/08/29 02:57:25;;;;;;;;;1.67;1.67;;;;;;;;5057048;28;50973;-60
2022/08/29 02:59:51;;;;;;;;;1.00;1.00;;;;;;;;5066780;27;51214;-60
2022/08/29 03:02:16;;;;;;;;;1.33;1.33;;;;;;;;5063685;28;51172;-59
2022/08/29 03:04:41;;;;;;;;;1.33;1.33;;;;;;;;5062710;28;50894;-59
2022/08/29 03:07:06;;;;;;;;;2.00;2.00;;;;;;;;5062355;28;50995;-60
2022/08/29 03:09:31;;;;;;;;;2.00;2.00;;;;;;;;5063001;27;51260;-60
2022/08/29 03:11:57;;;;;;;;;1.00;1.00;;;;;;;;5071836;28;51180;-60
2022/08/29 03:14:23;;;;;;;;;2.00;2.00;;;;;;;;5066848;28;51010;-60
2022/08/29 03:16:48;;;;;;;;;2.33;2.33;;;;;;;;5063122;28;51155;-59
2022/08/29 03:19:14;;;;;;;;;1.00;1.00;;;;;;;;5066453;28;51153;-59
2022/08/29 03:21:40;;;;;;;;;0.67;0.67;;;;;;;;5070882;28;51087;-58
2022/08/29 03:24:05;;;;;;;;;1.67;1.67;;;;;;;;5058104;28;51198;-59
2022/08/29 03:26:30;;;;;;;;;2.67;2.67;;;;;;;;5073219;27;51071;-58
2022/08/29 03:28:55;;;;;;;;;2.67;1.67;;;;;;;;5056615;28;52604;-59
2022/08/29 03:31:21;;;;;;;;;2.00;2.00;;;;;;;;5058741;28;51052;-64
2022/08/29 03:33:46;;;;;;;;;1.67;1.67;;;;;;;;5066193;28;50926;-60
2022/08/29 03:36:12;;;;;;;;;3.00;2.33;;;;;;;;5075609;27;51179;-59
2022/08/29 03:38:37;;;;;;;;;3.00;2.67;;;;;;;;5071080;28;53214;-58
2022/08/29 03:41:03;;;;;;;;;2.67;1.67;;;;;;;;5063972;28;51149;-58
2022/08/29 03:43:29;;;;;;;;;1.67;1.67;;;;;;;;5077137;28;51245;-59
2022/08/29 03:45:54;;;;;;;;;2.67;1.67;;;;;;;;5070367;28;51114;-59
2022/08/29 03:48:19;;;;;;;;;2.00;2.00;;;;;;;;5079115;27;51369;-60
2022/08/29 03:50:44;;;;;;;;;5.00;3.50;;;;;;;;5074071;28;51246;-60
2022/08/29 03:53:10;;;;;;;;;2.00;2.00;;;;;;;;5079005;28;51095;-59
2022/08/29 03:55:35;;;;;;;;;1.67;1.33;;;;;;;;5075419;28;51070;-59
2022/08/29 03:58:00;;;;;;;;;1.67;1.67;;;;;;;;5079411;28;51284;-59
2022/08/29 04:00:25;;;;;;;;;3.00;3.00;;;;;;;;5067100;28;51164;-59
2022/08/29 04:02:53;;;;;;;;;2.67;2.67;;;;;;;;5076596;28;51150;-59
2022/08/29 04:05:19;;;;;;;;;2.00;2.00;;;;;;;;5079234;28;51299;-59
2022/08/29 04:07:51;;;;;;;;;1.67;1.67;;;;;;;;5071821;27;51580;-59
2022/08/29 04:10:22;;;;;;;;;3.67;3.67;;;;;;;;5059823;28;51174;-60
2022/08/29 04:12:47;;;;;;;;;2.67;2.33;;;;;;;;5062728;28;51301;-60
2022/08/29 04:15:13;;;;;;;;;1.67;1.33;;;;;;;;5076516;28;51328;-59
2022/08/29 04:17:38;;;;;;;;;3.00;3.00;;;;;;;;5066003;28;51132;-59
2022/08/29 04:20:05;;;;;;;;;2.67;2.67;;;;;;;;5064924;27;51082;-59
2022/08/29 04:22:30;;;;;;;;;2.33;2.33;;;;;;;;5068087;28;51103;-59
2022/08/29 04:24:55;;;;;;;;;2.67;2.33;;;;;;;;5076952;28;50941;-58
2022/08/29 04:27:21;;;;;;;;;1.67;1.67;;;;;;;;5075547;28;52394;-58
2022/08/29 04:29:47;;;;;;;;;5.67;2.67;;;;;;;;5076434;28;51071;-58
2022/08/29 04:32:13;;;;;;;;;2.67;2.67;;;;;;;;5071136;28;51275;-58
2022/08/29 04:34:38;;;;;;;;;2.67;2.67;;;;;;;;5074942;27;50980;-58
2022/08/29 04:37:04;;;;;;;;;2.67;2.67;;;;;;;;5071142;28;51713;-59
2022/08/29 04:39:29;;;;;;;;;2.33;1.67;;;;;;;;5064082;28;51037;-59
2022/08/29 04:41:54;;;;;;;;;2.67;2.67;;;;;;;;5057666;28;51095;-59
2022/08/29 04:44:19;;;;;;;;;2.33;2.33;;;;;;;;5067839;28;51373;-59
2022/08/29 04:46:44;;;;;;;;;1.67;1.67;;;;;;;;5068035;28;51936;-59
2022/08/29 04:49:10;;;;;;;;;3.00;1.33;;;;;;;;5074843;28;50968;-59
2022/08/29 04:51:35;;;;;;;;;2.33;2.00;;;;;;;;5072084;28;51224;-59
2022/08/29 04:54:01;;;;;;;;;4.00;3.00;;;;;;;;5074488;28;51417;-59
2022/08/29 04:56:26;;;;;;;;;4.33;4.00;;;;;;;;5074123;28;50968;-60
2022/08/29 04:58:51;;;;;;;;;2.00;2.00;;;;;;;;5075165;28;51142;-59
2022/08/29 05:01:18;;;;;;;;;3.67;3.67;;;;;;;;5071432;28;51449;-59
2022/08/29 05:03:44;;;;;;;;;3.00;3.00;;;;;;;;5063150;28;51129;-60
2022/08/29 05:06:14;;;;;;;;;3.33;2.67;;;;;;;;5068309;28;53750;-59
2022/08/29 05:08:40;;;;;;;;;2.00;2.00;;;;;;;;5064840;28;51018;-60
2022/08/29 05:11:08;;;;;;;;;3.33;2.67;;;;;;;;5054574;27;51001;-59
2022/08/29 05:13:33;;;;;;;;;4.00;4.00;;;;;;;;5071786;28;51264;-60
2022/08/29 05:15:59;;;;;;;;;5.00;3.00;;;;;;;;5066078;28;51148;-60
2022/08/29 05:18:24;;;;;;;;;1.67;1.67;;;;;;;;5071090;28;50847;-60
2022/08/29 05:20:49;;;;;;;;;4.67;3.67;;;;;;;;5067812;28;51063;-59
2022/08/29 05:23:15;;;;;;;;;3.67;3.00;;;;;;;;5061428;27;51136;-58
2022/08/29 05:25:41;;;;;;;;;3.00;2.67;;;;;;;;5060824;28;53173;-60
2022/08/29 05:28:06;;;;;;;;;2.33;2.33;;;;;;;;5100039;27;51155;-59
2022/08/29 05:30:32;;;;;;;;;3.33;3.00;;;;;;;;5078311;27;51212;-60
2022/08/29 05:32:57;;;;;;;;;2.67;2.00;;;;;;;;5074598;27;51174;-60
2022/08/29 05:35:23;;;;;;;;;2.67;2.67;;;;;;;;5056169;27;51087;-60
2022/08/29 05:37:48;;;;;;;;;4.67;4.00;;;;;;;;5063480;28;51157;-59
2022/08/29 05:40:13;;;;;;;;;4.67;3.67;;;;;;;;5063439;28;51687;-58
2022/08/29 05:42:39;;;;;;;;;3.67;3.33;;;;;;;;5063251;28;51181;-60
2022/08/29 05:45:04;;;;;;;;;4.67;1.67;;;;;;;;5073620;27;51835;-59
2022/08/29 05:47:30;;;;;;;;;3.67;3.67;;;;;;;;5074156;28;50893;-59
2022/08/29 05:49:55;;;;;;;;;3.67;2.67;;;;;;;;5074466;28;51323;-60
2022/08/29 05:52:21;;;;;;;;;3.00;3.00;;;;;;;;5074347;28;51116;-60
2022/08/29 05:54:46;;;;;;;;;2.00;1.67;;;;;;;;5073725;28;51984;-59
2022/08/29 05:57:12;;;;;;;;;4.33;4.33;;;;;;;;5074051;28;50906;-59
2022/08/29 05:59:38;;;;;;;;;2.67;2.67;;;;;;;;5063127;28;50970;-59
2022/08/29 06:02:04;;;;;;;;;2.33;2.33;;;;;;;;5074118;27;51189;-60
2022/08/29 06:04:29;;;;;;;;;3.00;2.67;;;;;;;;5074090;28;52014;-59
2022/08/29 06:06:55;;;;;;;;;2.00;2.00;;;;;;;;5073976;27;51229;-59
2022/08/29 06:09:20;;;;;;;;;3.67;3.00;;;;;;;;5074074;27;51095;-60
2022/08/29 06:11:47;;;;;;;;;1.00;1.00;;;;;;;;5074026;28;50943;-59
2022/08/29 06:14:13;;;;;;;;;3.33;3.33;;;;;;;;5073509;28;52125;-60
2022/08/29 06:16:38;;;;;;;;;4.00;4.00;;;;;;;;5073803;28;51065;-58
2022/08/29 06:19:04;;;;;;;;;4.00;3.67;;;;;;;;5073523;28;51163;-60
2022/08/29 06:21:29;;;;;;;;;3.00;3.00;;;;;;;;5073866;28;50950;-58
2022/08/29 06:23:55;;;;;;;;;3.00;2.00;;;;;;;;5064581;28;51045;-59
2022/08/29 06:26:20;;;;;;;;;2.33;2.33;;;;;;;;5069315;28;51106;-60
2022/08/29 06:28:46;;;;;;;;;4.00;2.00;;;;;;;;5073533;28;51217;-59
2022/08/29 06:31:12;;;;;;;;;3.00;3.00;;;;;;;;5073363;27;51125;-60
2022/08/29 06:33:38;;;;;;;;;2.00;2.00;;;;;;;;5072807;28;51721;-59
2022/08/29 06:36:05;;;;;;;;;3.00;3.00;;;;;;;;5069093;27;50991;-61
2022/08/29 06:38:30;;;;;;;;;2.33;2.33;;;;;;;;5072865;28;51115;-61
2022/08/29 06:40:56;;;;;;;;;4.67;4.00;;;;;;;;5073255;28;51403;-61
2022/08/29 06:43:21;;;;;;;;;8.33;8.00;;;;;;;;5072807;28;51795;-61
2022/08/29 06:45:47;;;;;;;;;2.00;2.00;;;;;;;;5072681;28;51197;-60
2022/08/29 06:48:12;;;;;;;;;4.33;3.33;;;;;;;;5071782;28;51013;-61
2022/08/29 06:50:37;;;;;;;;;3.00;2.00;;;;;;;;5072912;28;51329;-60
2022/08/29 06:53:03;;;;;;;;;2.00;2.00;;;;;;;;5072320;28;51823;-60
2022/08/29 06:55:28;;;;;;;;;2.33;2.00;;;;;;;;5071014;28;51333;-61
2022/08/29 06:57:54;;;;;;;;;3.00;3.00;;;;;;;;5072554;28;51161;-61
2022/08/29 07:00:20;;;;;;;;;2.67;2.33;;;;;;;;5072457;28;51239;-62
2022/08/29 07:02:48;;;;;;;;;3.33;3.00;;;;;;;;5072379;28;52076;-61
2022/08/29 07:05:14;;;;;;;;;3.67;3.67;;;;;;;;5072584;28;50934;-61
2022/08/29 07:07:40;;;;;;;;;2.00;2.00;;;;;;;;5070642;28;51207;-61
2022/08/29 07:10:06;;;;;;;;;2.00;2.00;;;;;;;;5066726;27;51121;-60
2022/08/29 07:12:32;;;;;;;;;3.33;2.67;;;;;;;;5076219;27;53878;-61
2022/08/29 07:14:57;;;;;;;;;2.00;2.00;;;;;;;;5072428;28;51352;-62
2022/08/29 07:17:22;;;;;;;;;3.33;3.00;;;;;;;;5072229;28;50951;-61
2022/08/29 07:19:47;;;;;;;;;3.00;3.00;;;;;;;;5072132;28;51486;-61
2022/08/29 07:22:13;;;;;;;;;3.00;3.00;;;;;;;;5071925;28;51996;-62
2022/08/29 07:24:38;;;;;;;;;4.33;4.00;;;;;;;;5072124;28;50966;-62
2022/08/29 07:27:03;;;;;;;;;3.00;3.00;;;;;;;;5072613;28;51266;-61
2022/08/29 07:29:29;;;;;;;;;4.00;4.00;;;;;;;;5070716;28;51338;-61
2022/08/29 07:31:54;;;;;;;;;3.67;3.00;;;;;;;;5071903;27;51025;-60
2022/08/29 07:34:19;;;;;;;;;2.67;2.67;;;;;;;;5071874;28;51111;-61
2022/08/29 07:36:44;;;;;;;;;4.00;4.00;;;;;;;;5072171;28;51164;-61
2022/08/29 07:39:11;;;;;;;;;3.00;3.00;;;;;;;;5072026;28;51209;-60
2022/08/29 07:41:37;;;;;;;;;2.67;2.67;;;;;;;;5072155;28;51161;-62
2022/08/29 07:44:02;;;;;;;;;4.33;4.33;;;;;;;;5070554;28;50993;-62
2022/08/29 07:46:28;;;;;;;;;4.00;3.67;;;;;;;;5072520;28;51020;-62
2022/08/29 07:48:53;;;;;;;;;3.00;2.33;;;;;;;;5072487;28;51183;-61
2022/08/29 07:51:21;;;;;;;;;2.33;2.33;;;;;;;;5070169;28;53556;-61
2022/08/29 07:53:47;;;;;;;;;4.00;3.00;;;;;;;;5070938;27;51123;-61
2022/08/29 07:56:15;;;;;;;;;1.00;1.00;;;;;;;;5071810;28;50968;-61
2022/08/29 07:58:40;;;;;;;;;3.00;3.00;;;;;;;;5071627;28;50875;-61
2022/08/29 08:01:05;;;;;;;;;1.00;1.00;;;;;;;;5071288;28;51152;-62
2022/08/29 08:03:31;;;;;;;;;2.67;2.67;;;;;;;;5070301;28;51043;-62
2022/08/29 08:05:57;;;;;;;;;2.33;2.33;;;;;;;;5072117;28;51047;-62
2022/08/29 08:08:22;;;;;;;;;3.00;2.00;;;;;;;;5071332;28;51307;-62
2022/08/29 08:10:48;;;;;;;;;2.00;2.00;;;;;;;;5071363;28;51332;-62
2022/08/29 08:13:13;;;;;;;;;3.00;3.00;;;;;;;;5071598;28;50891;-62
2022/08/29 08:15:39;;;;;;;;;4.00;4.00;;;;;;;;5071460;28;51404;-61
2022/08/29 08:18:04;;;;;;;;;2.33;2.00;;;;;;;;5071871;27;51180;-62
2022/08/29 08:20:29;;;;;;;;;2.00;2.00;;;;;;;;5069880;28;53643;-61
2022/08/29 08:22:55;;;;;;;;;2.00;2.00;;;;;;;;5073581;28;50958;-62
2022/08/29 08:25:21;;;;;;;;;3.00;2.00;;;;;;;;5074858;28;51094;-62
2022/08/29 08:27:46;;;;;;;;;3.00;2.33;;;;;;;;5075093;28;51099;-62
2022/08/29 08:30:12;;;;;;;;;3.00;3.00;;;;;;;;5074769;28;51196;-62
2022/08/29 08:32:37;;;;;;;;;3.00;2.00;;;;;;;;5074569;28;51005;-62
2022/08/29 08:35:02;;;;;;;;;2.67;2.67;;;;;;;;5074961;27;51075;-62
2022/08/29 08:37:28;;;;;;;;;5.00;4.00;;;;;;;;5073777;28;51301;-62
2022/08/29 08:39:56;;;;;;;;;3.67;3.67;;;;;;;;5074613;28;51067;-63
2022/08/29 08:42:25;;;;;;;;;2.67;2.67;;;;;;;;5074927;27;50925;-63
2022/08/29 08:44:59;;;;;;;;;3.00;2.00;;;;;;;;5074690;28;51053;-62
2022/08/29 08:47:27;;;;;;;;;0.00;0.00;;;;;;;;5075220;27;50916;-62
2022/08/29 08:49:57;;;;;;;;;7.00;7.00;;;;;;;;5074346;27;51948;-61
2022/08/29 08:52:31;;;;;;;;;3.00;2.00;;;;;;;;5072339;28;51051;-61
2022/08/29 08:55:01;;;;;;;;;3.00;3.00;;;;;;;;5074359;28;50948;-61
2022/08/29 08:57:30;;;;;;;;;4.00;1.67;;;;;;;;5074150;28;50962;-61
2022/08/29 08:59:57;;;;;;;;;12.00;11.00;;;;;;;;5074495;28;51540;-62
2022/08/29 09:02:36;;;;;;;;;4.33;4.33;;;;;;;;5074321;28;51045;-62
2022/08/29 09:05:07;;;;;;;;;3.00;3.00;;;;;;;;5074348;28;51127;-61
2022/08/29 09:07:38;;;;;;;;;5.00;3.00;;;;;;;;5074600;28;50917;-60
2022/08/29 09:10:12;;;;;;;;;2.33;2.33;;;;;;;;5073739;28;53239;-61
2022/08/29 09:12:43;;;;;;;;;2.00;2.00;;;;;;;;5070717;28;53753;-62
2022/08/29 09:15:13;;;;;;;;;1.00;1.00;;;;;;;;5074029;27;50824;-62
2022/08/29 09:17:47;;;;;;;;;3.33;2.67;;;;;;;;5074611;28;50921;-62
2022/08/29 09:20:18;;;;;;;;;4.33;4.00;;;;;;;;5073738;28;52880;-62
2022/08/29 09:22:47;;;;;;;;;3.00;3.00;;;;;;;;5074587;27;51231;-62
2022/08/29 09:25:13;;;;;;;;;3.33;3.00;;;;;;;;5073807;27;51213;-62
2022/08/29 09:27:38;;;;;;;;;3.33;3.00;;;;;;;;5074280;27;51017;-62
2022/08/29 09:30:07;;;;;;;;;3.67;3.67;;;;;;;;5074158;27;52011;-61
2022/08/29 09:32:32;;;;;;;;;5.33;4.00;;;;;;;;5073987;27;51047;-61
2022/08/29 09:34:58;;;;;;;;;5.00;4.00;;;;;;;;5073263;28;51176;-62
2022/08/29 09:37:27;;;;;;;;;3.67;3.33;;;;;;;;5074495;28;50988;-62
2022/08/29 09:39:54;;;;;;;;;4.33;4.00;;;;;;;;5073493;27;52369;-62
2022/08/29 09:42:21;;;;;;;;;3.00;3.00;;;;;;;;5073906;28;50937;-62
2022/08/29 09:44:54;;;;;;;;;5.33;3.67;;;;;;;;5073701;28;51107;-62
2022/08/29 09:47:22;;;;;;;;;4.67;4.00;;;;;;;;5073034;28;50986;-63
2022/08/29 09:50:17;;;;;;;;;4.00;3.00;;;;;;;;5072213;28;52864;-62
2022/08/29 09:52:53;;;;;;;;;3.00;3.00;;;;;;;;5058406;28;51293;-62
2022/08/29 09:55:22;;;;;;;;;5.67;5.67;;;;;;;;5073016;28;51115;-62
2022/08/29 09:57:52;;;;;;;;;3.67;3.67;;;;;;;;5073566;28;51104;-61
2022/08/29 10:00:24;;;;;;;;;3.00;2.33;;;;;;;;5071826;28;52167;-61
2022/08/29 10:02:52;;;;;;;;;4.33;3.67;;;;;;;;5072051;28;51019;-62
2022/08/29 10:05:35;;;;;;;;;7.33;7.00;;;;;;;;5073584;27;51127;-62
2022/08/29 10:08:02;;;;;;;;;6.33;6.00;;;;;;;;5072043;28;51378;-63
2022/08/29 10:10:29;;;;;;;;;4.00;3.33;;;;;;;;5070992;28;52767;-63
2022/08/29 10:13:00;;;;;;;;;4.00;4.00;;;;;;;;5073347;28;51029;-62
2022/08/29 10:15:28;;;;;;;;;3.00;3.00;;;;;;;;5071769;28;51176;-62
2022/08/29 10:18:22;;;;;;;;;6.00;4.00;;;;;;;;5073177;27;51295;-62
2022/08/29 10:20:54;;;;;;;;;3.00;3.00;;;;;;;;5062739;28;51081;-63
2022/08/29 10:23:26;;;;;;;;;6.00;6.00;;;;;;;;5073029;28;50978;-61
2022/08/29 10:25:52;;;;;;;;;3.00;3.00;;;;;;;;5073402;28;51087;-62
2022/08/29 10:28:38;;;;;;;;;0.00;0.00;;;;;;;;5073242;28;50926;-62
2022/08/29 10:31:18;;;;;;;;;4.67;4.33;;;;;;;;5072939;27;51148;-61
2022/08/29 10:33:53;;;;;;;;;4.67;4.33;;;;;;;;5073209;28;51047;-63
2022/08/29 10:36:19;;;;;;;;;4.33;4.33;;;;;;;;5072819;28;51175;-63
2022/08/29 10:38:50;;;;;;;;;4.33;4.33;;;;;;;;5072747;27;51271;-62
2022/08/29 10:41:31;;;;;;;;;5.33;4.67;;;;;;;;5072581;28;51925;-62
2022/08/29 10:43:59;;;;;;;;;4.33;4.33;;;;;;;;5072844;28;51149;-62
2022/08/29 10:46:33;;;;;;;;;3.33;3.33;;;;;;;;5072889;28;51282;-62
2022/08/29 10:49:04;;;;;;;;;5.00;4.67;;;;;;;;5072934;28;51105;-62
2022/08/29 10:51:38;;;;;;;;;4.33;4.33;;;;;;;;5072264;27;51385;-62
2022/08/29 10:54:23;;;;;;;;;3.67;3.33;;;;;;;;5071974;28;51150;-63
2022/08/29 10:56:50;;;;;;;;;7.67;7.67;;;;;;;;5062288;27;51116;-62
2022/08/29 10:59:27;;;;;;;;;8.67;7.67;;;;;;;;5072764;27;51033;-63
2022/08/29 11:02:02;;;;;;;;;6.00;6.00;;;;;;;;5070654;28;53587;-62
2022/08/29 11:04:33;;;;;;;;;5.00;5.00;;;;;;;;5071204;28;51005;-63
2022/08/29 11:07:01;;;;;;;;;3.00;2.33;;;;;;;;5070694;28;51138;-62
2022/08/29 11:09:26;;;;;;;;;6.67;6.00;;;;;;;;5072053;28;50971;-63
2022/08/29 11:12:01;;;;;;;;;6.00;5.33;;;;;;;;5069534;27;52252;-62
2022/08/29 11:14:30;;;;;;;;;5.33;5.00;;;;;;;;5068637;27;51250;-62
2022/08/29 11:16:57;;;;;;;;;6.00;5.00;;;;;;;;5071734;28;51086;-62
2022/08/29 11:19:33;;;;;;;;;4.00;4.00;;;;;;;;5072253;27;50849;-62
2022/08/29 11:21:58;;;;;;;;;5.00;5.00;;;;;;;;5071776;28;51378;-62
2022/08/29 11:24:26;;;;;;;;;5.50;5.50;;;;;;;;5071882;28;51010;-62
2022/08/29 11:27:03;;;;;;;;;6.00;6.00;;;;;;;;5071933;28;51049;-63
2022/08/29 11:29:35;;;;;;;;;6.00;6.00;;;;;;;;5072039;28;51223;-62
2022/08/29 11:32:05;;;;;;;;;6.00;5.33;;;;;;;;5071812;28;51587;-62
2022/08/29 11:34:36;;;;;;;;;6.00;5.00;;;;;;;;5070683;28;51005;-63
2022/08/29 11:37:34;;;;;;;;;6.00;6.00;;;;;;;;5071935;28;51101;-62
2022/08/29 11:40:11;;;;;;;;;7.00;6.00;;;;;;;;5059153;28;51166;-62
2022/08/29 11:42:40;;;;;;;;;6.00;6.00;;;;;;;;5071493;28;50941;-62
2022/08/29 11:45:09;;;;;;;;;6.00;5.33;;;;;;;;5071852;28;51187;-63
2022/08/29 11:47:43;;;;;;;;;5.00;5.00;;;;;;;;5071895;28;51067;-62
2022/08/29 11:50:15;;;;;;;;;6.67;6.00;;;;;;;;5072028;27;50934;-63
2022/08/29 11:53:00;;;;;;;;;6.00;6.00;;;;;;;;5071413;28;52102;-63
2022/08/29 11:55:34;;;;;;;;;6.67;6.67;;;;;;;;5050569;28;51089;-62
2022/08/29 11:58:04;;;;;;;;;6.67;6.33;;;;;;;;5073856;28;50921;-62
2022/08/29 12:00:43;;;;;;;;;8.00;7.00;;;;;;;;5075641;28;52032;-62
2022/08/29 12:03:27;;;;;;;;;5.67;5.67;;;;;;;;5075103;27;51189;-62
2022/08/29 12:05:58;;;;;;;;;5.00;5.00;;;;;;;;5074849;27;51056;-62
2022/08/29 12:08:38;;;;;;;;;5.00;5.00;;;;;;;;5072943;28;51111;-62
2022/08/29 12:11:04;;;;;;;;;6.67;6.67;;;;;;;;5075173;28;51221;-62
2022/08/29 12:13:45;;;;;;;;;5.33;5.33;;;;;;;;5073292;28;52819;-63
2022/08/29 12:16:12;;;;;;;;;6.67;6.00;;;;;;;;5074493;28;51041;-62
2022/08/29 12:18:39;;;;;;;;;6.00;5.67;;;;;;;;5075066;27;51059;-62
2022/08/29 12:21:30;;;;;;;;;6.33;6.33;;;;;;;;5075076;28;51099;-62
2022/08/29 12:23:55;;;;;;;;;7.33;6.67;;;;;;;;5072747;28;52047;-62
2022/08/29 12:26:35;;;;;;;;;4.67;4.00;;;;;;;;5074879;28;51030;-61
2022/08/29 12:29:03;;;;;;;;;6.00;6.00;;;;;;;;5075242;28;50948;-62
2022/08/29 12:31:54;;;;;;;;;6.00;6.00;;;;;;;;5073273;28;51215;-64
2022/08/29 12:34:25;;;;;;;;;4.67;4.67;;;;;;;;5074464;27;51260;-62
2022/08/29 12:36:59;;;;;;;;;6.67;5.67;;;;;;;;5074819;27;51029;-63
2022/08/29 12:39:33;;;;;;;;;6.33;6.00;;;;;;;;5074110;27;51269;-61
2022/08/29 12:42:17;;;;;;;;;6.00;6.00;;;;;;;;5074707;27;51520;-62
2022/08/29 12:44:44;;;;;;;;;6.33;6.33;;;;;;;;5073992;27;51274;-62
2022/08/29 12:47:11;;;;;;;;;8.00;7.33;;;;;;;;5074210;27;51062;-61
2022/08/29 12:49:49;;;;;;;;;8.00;7.00;;;;;;;;5074270;28;51040;-62
2022/08/29 12:52:23;;;;;;;;;7.00;7.00;;;;;;;;5074613;27;51088;-61
2022/08/29 12:54:48;;;;;;;;;7.00;6.33;;;;;;;;5073871;28;51832;-61
2022/08/29 12:57:18;;;;;;;;;7.67;7.67;;;;;;;;5073282;28;51068;-61
2022/08/29 12:59:44;;;;;;;;;6.33;6.33;;;;;;;;5074463;28;50969;-61
2022/08/29 13:02:21;;;;;;;;;5.00;5.00;;;;;;;;5074159;27;51199;-61
2022/08/29 13:04:46;;;;;;;;;7.33;7.00;;;;;;;;5073995;27;51940;-61
2022/08/29 13:07:15;;;;;;;;;10.67;10.00;;;;;;;;5074053;27;50947;-63
2022/08/29 13:09:48;;;;;;;;;6.00;6.00;;;;;;;;5072779;27;51032;-61
2022/08/29 13:12:16;;;;;;;;;8.33;8.00;;;;;;;;5073971;28;51131;-62
2022/08/29 13:14:46;;;;;;;;;6.00;5.67;;;;;;;;5080869;27;52143;-61
2022/08/29 13:17:12;;;;;;;;;5.00;4.67;;;;;;;;5068717;27;51064;-59
2022/08/29 13:19:37;;;;;;;;;8.00;7.33;;;;;;;;5066695;27;51049;-59
2022/08/29 13:22:03;;;;;;;;;6.33;6.00;;;;;;;;5065021;27;50859;-60
2022/08/29 13:24:28;;;;;;;;;7.00;7.00;;;;;;;;5072810;27;51847;-60
2022/08/29 13:26:55;;;;;;;;;7.33;6.67;;;;;;;;5073077;27;50834;-53
2022/08/29 13:29:28;;;;;;;;;8.67;8.00;;;;;;;;5073817;27;51039;-52
2022/08/29 13:32:08;;;;;;;;;7.33;7.00;;;;;;;;5061404;28;50929;-53
2022/08/29 13:34:33;;;;;;;;;7.00;7.00;;;;;;;;5073890;28;51874;-53
2022/08/29 13:37:00;;;;;;;;;7.00;7.00;;;;;;;;5074148;28;51006;-54
2022/08/29 13:39:26;;;;;;;;;6.00;6.00;;;;;;;;5073757;28;51101;-47
2022/08/29 13:42:00;;;;;;;;;5.33;5.00;;;;;;;;5073842;28;50923;-51
2022/08/29 13:44:29;;;;;;;;;5.67;5.00;;;;;;;;5073478;28;52023;-49
2022/08/29 13:46:58;;;;;;;;;10.00;9.67;;;;;;;;5073781;28;50998;-50
2022/08/29 13:49:28;;;;;;;;;4.33;4.33;;;;;;;;5073609;28;50901;-48
2022/08/29 13:51:53;;;;;;;;;9.33;8.33;;;;;;;;5073444;28;50902;-49
2022/08/29 13:54:18;;;;;;;;;6.67;6.67;;;;;;;;5072864;27;51341;-50
2022/08/29 13:56:46;;;;;;;;;6.00;6.00;;;;;;;;5073696;28;50903;-48
2022/08/29 13:59:13;;;;;;;;;8.67;8.67;;;;;;;;5073424;28;51175;-49
2022/08/29 14:01:38;;;;;;;;;6.33;6.33;;;;;;;;5073363;28;51254;-50
2022/08/29 14:04:03;;;;;;;;;9.33;9.33;;;;;;;;5072904;28;51626;-50
2022/08/29 14:06:31;;;;;;;;;7.67;7.67;;;;;;;;5073596;27;51368;-50
2022/08/29 14:08:58;;;;;;;;;9.00;9.00;;;;;;;;5072731;28;51288;-48
2022/08/29 14:11:24;;;;;;;;;10.00;9.33;;;;;;;;5066083;28;51311;-53
2022/08/29 14:13:52;;;;;;;;;9.67;8.67;;;;;;;;5072709;28;51174;-50
2022/08/29 14:16:18;;;;;;;;;8.33;8.33;;;;;;;;5073452;28;50957;-50
2022/08/29 14:18:44;;;;;;;;;5.67;4.67;;;;;;;;5073208;27;51008;-49
2022/08/29 14:21:09;;;;;;;;;7.67;7.33;;;;;;;;5072796;28;50987;-51
2022/08/29 14:23:34;;;;;;;;;8.00;7.00;;;;;;;;5071083;28;53165;-51
2022/08/29 14:26:00;;;;;;;;;8.67;7.67;;;;;;;;5073228;27;51200;-49
2022/08/29 14:28:25;;;;;;;;;10.67;10.00;;;;;;;;5073405;28;51248;-52
2022/08/29 14:30:50;;;;;;;;;6.33;6.33;;;;;;;;5073108;28;51145;-50
2022/08/29 14:33:16;;;;;;;;;13.00;12.00;;;;;;;;5072065;28;52582;-53
2022/08/29 14:35:41;;;;;;;;;10.00;10.00;;;;;;;;5072558;27;51024;-51
2022/08/29 14:38:06;;;;;;;;;8.33;8.33;;;;;;;;5072170;28;51195;-47
2022/08/29 14:40:35;;;;;;;;;7.00;7.00;;;;;;;;5072778;28;51315;-50
2022/08/29 14:43:01;;;;;;;;;8.00;8.00;;;;;;;;5070852;28;52059;-49
2022/08/29 14:45:27;;;;;;;;;10.33;9.00;;;;;;;;5072536;27;51030;-51
2022/08/29 14:47:52;;;;;;;;;7.67;6.67;;;;;;;;5072497;28;51174;-52